^^
Soleil Laural Canyon Historical Data
 
Daily Summary for June 20, 2019 Units:  English    Metric   Both
Daily Weekly Monthly Yearly Custom
  Current: High: Low: Average:
Temperature: 78.4 °F 79.7 °F 69.4 °F 72.5 °F
Dew Point: 67.8 °F 70 °F 67.1 °F 68.6 °F
Humidity: 70% 97% 66% 88%
Wind Speed: 0.9mph 11.2mph 0mph 1.4mph
Wind Gust: 2.2mph 15.9mph - -
WindENE - - ESE
Pressure: 29.91 in 29.92 in 29.85 in -
Precipitation: 0.01 in      
Historical Graphs
 
 
Tabular Data for June 20, 2019
Time Temperature Dew Point Pressure Wind Wind Speed Wind Gust Humidity Rainfall Rate (Hourly) solar
00:04 71.8 °F 69.1 °F 29.87 in Calm     91% 0 in 0.00 W/m2
00:09 71.8 °F 69.1 °F 29.88 in Calm     91% 0 in 0.00 W/m2
00:14 71.8 °F 69.1 °F 29.87 in Calm     91% 0 in 0.00 W/m2
00:19 71.6 °F 69.3 °F 29.88 in Calm     92% 0 in 0.00 W/m2
00:24 71.8 °F 69.4 °F 29.87 in Calm     92% 0 in 0.00 W/m2
00:29 71.6 °F 69.3 °F 29.88 in Calm     92% 0 in 0.00 W/m2
00:34 71.4 °F 69.3 °F 29.88 in Calm     93% 0 in 0.00 W/m2
00:39 71.4 °F 69.3 °F 29.87 in Calm     93% 0 in 0.00 W/m2
00:44 71.2 °F 69.1 °F 29.88 in Calm     93% 0 in 0.00 W/m2
00:49 71.4 °F 69.3 °F 29.88 in Calm     93% 0 in 0.00 W/m2
00:54 71.4 °F 69.3 °F 29.88 in Calm     93% 0 in 0.00 W/m2
00:59 71.4 °F 69.3 °F 29.88 in Calm     93% 0 in 0.00 W/m2
01:04 71.2 °F 69.1 °F 29.88 in Calm     93% 0 in 0.00 W/m2
01:09 71.2 °F 69.1 °F 29.88 in Calm     93% 0 in 0.00 W/m2
01:14 71.1 °F 69.1 °F 29.89 in Calm     94% 0 in 0.00 W/m2
01:19 71.1 °F 69.1 °F 29.89 in Calm     94% 0 in 0.00 W/m2
01:24 70.9 °F 68.9 °F 29.88 in Calm     94% 0 in 0.00 W/m2
01:29 71.1 °F 69.1 °F 29.88 in Calm     94% 0 in 0.00 W/m2
01:34 70.9 °F 68.9 °F 29.88 in Calm     94% 0 in 0.00 W/m2
01:39 70.7 °F 68.7 °F 29.89 in Calm     94% 0 in 0.00 W/m2
01:44 70.7 °F 68.7 °F 29.89 in Calm     94% 0 in 0.00 W/m2
01:49 70.5 °F 68.5 °F 29.88 in Calm     94% 0 in 0.00 W/m2
01:54 70.5 °F 68.9 °F 29.88 in Calm     95% 0 in 0.00 W/m2
01:59 70.7 °F 69.1 °F 29.88 in Calm     95% 0 in 0.00 W/m2
02:04 70.5 °F 68.9 °F 29.88 in Calm     95% 0 in 0.00 W/m2
02:09 70.3 °F 68.7 °F 29.88 in Calm     95% 0 in 0.00 W/m2
02:14 70.3 °F 68.7 °F 29.88 in Calm     95% 0 in 0.00 W/m2
02:19 70.5 °F 68.9 °F 29.88 in Calm     95% 0 in 0.00 W/m2
02:24 70.5 °F 68.9 °F 29.87 in Calm     95% 0 in 0.00 W/m2
02:29 70.5 °F 68.9 °F 29.87 in Calm     95% 0 in 0.00 W/m2
02:34 70.7 °F 69.1 °F 29.88 in Calm     95% 0 in 0.00 W/m2
02:39 70.7 °F 69.1 °F 29.88 in Calm     95% 0 in 0.00 W/m2
02:44 70.9 °F 69.3 °F 29.87 in Calm     95% 0 in 0.00 W/m2
02:49 70.9 °F 69.3 °F 29.87 in Calm     95% 0 in 0.00 W/m2
02:54 70.9 °F 69.3 °F 29.87 in Calm     95% 0 in 0.00 W/m2
02:59 70.9 °F 69.3 °F 29.86 in Calm     95% 0 in 0.00 W/m2
03:04 70.7 °F 69.1 °F 29.86 in Calm     95% 0 in 0.00 W/m2
03:09 70.7 °F 69.1 °F 29.86 in Calm     95% 0 in 0.00 W/m2
03:14 70.7 °F 69.1 °F 29.86 in Calm     95% 0 in 0.00 W/m2
03:19 70.7 °F 69.1 °F 29.86 in Calm     95% 0 in 0.00 W/m2
03:24 70.7 °F 69.6 °F 29.86 in Calm     96% 0 in 0.00 W/m2
03:29 70.5 °F 69.4 °F 29.86 in Calm     96% 0 in 0.00 W/m2
03:34 70.7 °F 69.6 °F 29.86 in Calm     96% 0 in 0.00 W/m2
03:39 70.5 °F 68.9 °F 29.85 in Calm     95% 0 in 0.00 W/m2
03:44 70.3 °F 69.3 °F 29.86 in Calm     96% 0 in 0.00 W/m2
03:49 70.3 °F 69.3 °F 29.86 in Calm     96% 0 in 0.00 W/m2
03:54 70.3 °F 69.3 °F 29.86 in Calm     96% 0 in 0.00 W/m2
03:59 70.3 °F 69.3 °F 29.85 in Calm     96% 0 in 0.00 W/m2
04:04 70.5 °F 69.4 °F 29.86 in Calm     96% 0 in 0.00 W/m2
04:09 70.5 °F 69.4 °F 29.86 in Calm     96% 0 in 0.00 W/m2
04:14 70.2 °F 69.1 °F 29.86 in Calm     96% 0 in 0.00 W/m2
04:19 70.2 °F 69.1 °F 29.86 in Calm     96% 0 in 0.00 W/m2
04:24 70.3 °F 69.3 °F 29.87 in Calm     96% 0 in 0.00 W/m2
04:29 70.3 °F 69.3 °F 29.86 in Calm     96% 0 in 0.00 W/m2
04:34 70.2 °F 69.1 °F 29.87 in Calm     96% 0 in 0.00 W/m2
04:39 70.3 °F 69.3 °F 29.86 in Calm     96% 0 in 0.00 W/m2
04:44 70.3 °F 69.3 °F 29.87 in Calm     96% 0 in 0.00 W/m2
04:49 70.2 °F 69.1 °F 29.86 in Calm     96% 0 in 0.00 W/m2
04:54 70 °F 69.3 °F 29.86 in Calm     97% 0 in 0.00 W/m2
04:59 70 °F 69.3 °F 29.86 in Calm     97% 0 in 0.00 W/m2
05:04 70 °F 69.3 °F 29.86 in Calm     97% 0 in 0.00 W/m2
05:09 70 °F 69.3 °F 29.86 in Calm     97% 0 in 0.00 W/m2
05:14 69.8 °F 69.1 °F 29.86 in Calm     97% 0 in 0.00 W/m2
05:19 69.8 °F 69.1 °F 29.87 in Calm     97% 0 in 0.00 W/m2
05:24 69.8 °F 69.1 °F 29.87 in Calm     97% 0 in 0.00 W/m2
05:29 69.8 °F 69.1 °F 29.87 in Calm     97% 0 in 0.00 W/m2
05:34 69.6 °F 68.9 °F 29.87 in Calm     97% 0 in 0.00 W/m2
05:39 69.8 °F 69.1 °F 29.88 in Calm     97% 0 in 0.00 W/m2
05:44 69.6 °F 68.9 °F 29.88 in Calm     97% 0 in 0.00 W/m2
05:49 69.8 °F 69.1 °F 29.89 in Calm     97% 0 in 0.00 W/m2
05:54 69.4 °F 68.7 °F 29.89 in Calm     97% 0 in 0.00 W/m2
05:59 69.4 °F 68.7 °F 29.89 in Calm     97% 0 in 0.00 W/m2
06:04 70 °F 69.3 °F 29.89 in Calm     97% 0 in 0.00 W/m2
06:09 69.6 °F 68.9 °F 29.88 in Calm     97% 0 in 0.00 W/m2
06:14 69.8 °F 69.1 °F 29.88 in Calm     97% 0 in 0.00 W/m2
06:19 70 °F 69.3 °F 29.88 in NNW 0.4 mph 1.1 mph 97% 0 in 0.00 W/m2
06:24 70.2 °F 69.4 °F 29.89 in Calm     97% 0 in 0.85 W/m2
06:29 70 °F 69.3 °F 29.89 in Calm     97% 0 in 4.77 W/m2
06:34 70.2 °F 69.4 °F 29.89 in SE 2.7 mph 3.4 mph 97% 0 in 0.85 W/m2
06:39 70.7 °F 70 °F 29.90 in ESE 3.4 mph 4.5 mph 97% 0 in 2.94 W/m2
06:44 71.2 °F 68.9 °F 29.90 in ESE 8.1 mph 12.5 mph 92% 0 in 8.19 W/m2
06:49 73 °F 68 °F 29.91 in ENE 8.9 mph 15.9 mph 84% 0 in 3.79 W/m2
06:54 72.7 °F 67.6 °F 29.90 in ESE 3.8 mph 4.5 mph 84% 0 in 2.57 W/m2
06:59 72.1 °F 68.2 °F 29.90 in NNE 1.3 mph 2.2 mph 87% 0 in 2.94 W/m2
07:04 72 °F 68 °F 29.90 in East 4.5 mph 6.9 mph 87% 0 in 1.71 W/m2
07:09 71.8 °F 68.4 °F 29.90 in ESE 3.4 mph 5.8 mph 89% 0.01 in 3.43 W/m2
07:14 71.2 °F 68.2 °F 29.90 in Calm     90% 0.01 in 2.94 W/m2
07:19 70.9 °F 68.2 °F 29.88 in NE 0.2 mph 1.1 mph 91% 0.01 in 7.34 W/m2
07:24 70.5 °F 68.2 °F 29.88 in NW 0.9 mph 1.1 mph 92% 0.01 in 15.53 W/m2
07:29 70.2 °F 68 °F 29.87 in Calm     93% 0.01 in 16.39 W/m2
07:34 70.2 °F 68 °F 29.88 in NNE 0.2 mph 1.1 mph 93% 0.01 in 15.53 W/m2
07:39 70 °F 67.6 °F 29.88 in Calm     92% 0.01 in 19.94 W/m2
07:44 70.2 °F 67.8 °F 29.87 in Calm     92% 0.01 in 26.42 W/m2
07:49 70 °F 67.8 °F 29.87 in Calm     93% 0.01 in 35.48 W/m2
07:54 70.2 °F 68.2 °F 29.89 in Calm     94% 0.01 in 51.99 W/m2
07:59 70 °F 68 °F 29.88 in Calm     94% 0.01 in 63.24 W/m2
08:04 70 °F 68 °F 29.88 in Calm     94% 0.01 in 68.87 W/m2
08:09 70.2 °F 68 °F 29.89 in Calm     93% 0 in 79.76 W/m2
08:14 70.3 °F 68.2 °F 29.90 in East 0.2 mph 1.1 mph 93% 0 in 129.68 W/m2
08:19 70.7 °F 68.4 °F 29.89 in ESE 0.2 mph 1.1 mph 92% 0 in 223.75 W/m2
08:24 71.1 °F 68.4 °F 29.89 in ESE 0.4 mph 1.1 mph 91% 0 in 86.73 W/m2
08:29 71.2 °F 68.5 °F 29.90 in Calm     91% 0 in 265.83 W/m2
08:34 71.8 °F 68.7 °F 29.92 in ESE 0.4 mph 1.1 mph 90% 0 in 302.78 W/m2
08:39 72.5 °F 68.7 °F 29.91 in East 2.5 mph 3.4 mph 88% 0 in 315.38 W/m2
08:44 73 °F 67.6 °F 29.91 in East 7.6 mph 9.2 mph 83% 0 in 359.18 W/m2
08:49 73.2 °F 67.8 °F 29.91 in ENE 3.1 mph 4.5 mph 83% 0 in 185.58 W/m2
08:54 73 °F 67.3 °F 29.91 in SE 4 mph 5.8 mph 82% 0 in 196.84 W/m2
08:59 73.2 °F 67.8 °F 29.91 in ESE 1.8 mph 2.2 mph 83% 0 in 235.00 W/m2
09:04 73.4 °F 67.6 °F 29.91 in East 2.2 mph 2.2 mph 82% 0 in 431.11 W/m2
09:09 74.1 °F 67.8 °F 29.91 in NE 1.8 mph 3.4 mph 81% 0 in 502.31 W/m2
09:14 75.2 °F 67.8 °F 29.91 in SE 4.3 mph 5.8 mph 78% 0 in 258.49 W/m2
09:19 74.8 °F 67.1 °F 29.92 in ESE 5.1 mph 6.9 mph 77% 0 in 292.75 W/m2
09:24 75.4 °F 67.6 °F 29.91 in East 4.5 mph 5.8 mph 77% 0 in 251.52 W/m2
09:29 74.8 °F 67.1 °F 29.91 in East 4.3 mph 5.8 mph 77% 0 in 485.43 W/m2
09:34 75.9 °F 67.5 °F 29.91 in ESE 5.4 mph 12.5 mph 75% 0 in 497.91 W/m2
09:39 76.1 °F 67.6 °F 29.92 in SE 1.3 mph 2.2 mph 75% 0 in 504.03 W/m2
09:44 76.6 °F 67.3 °F 29.92 in East 4.5 mph 10.3 mph 73% 0 in 579.14 W/m2
09:49 76.6 °F 67.3 °F 29.92 in East 4 mph 8.1 mph 73% 0 in 193.90 W/m2
09:54 77 °F 67.3 °F 29.91 in ENE 5.6 mph 6.9 mph 72% 0 in 575.22 W/m2
09:59 77.4 °F 67.6 °F 29.91 in ESE 2.7 mph 6.9 mph 72% 0 in 580.36 W/m2
10:04 77.7 °F 68 °F 29.91 in ESE 5.8 mph 6.9 mph 72% 0 in 560.06 W/m2
10:09 77.7 °F 68 °F 29.90 in SE 7.6 mph 12.5 mph 72% 0 in 549.16 W/m2
10:14 78.1 °F 67.5 °F 29.91 in East 5.8 mph 8.1 mph 70% 0 in 616.45 W/m2
10:19 78.4 °F 68.4 °F 29.91 in ESE 2.5 mph 4.5 mph 71% 0 in 559.08 W/m2
10:24 78.8 °F 68.2 °F 29.91 in ESE 3.8 mph 5.8 mph 70% 0 in 232.93 W/m2
10:29 78.1 °F 68 °F 29.91 in East 4.3 mph 5.8 mph 71% 0 in 226.81 W/m2
10:34 77.7 °F 67.6 °F 29.92 in ENE 11.2 mph 13.6 mph 71% 0 in 248.10 W/m2
10:39 77.4 °F 67.3 °F 29.92 in ESE 8.9 mph 12.5 mph 71% 0 in 269.75 W/m2
10:44 77 °F 67.3 °F 29.91 in South 0.9 mph 2.2 mph 72% 0 in 258.49 W/m2
10:49 77.4 °F 68 °F 29.92 in SE 2.9 mph 4.5 mph 73% 0 in 241.61 W/m2
10:54 77.5 °F 67.8 °F 29.92 in ESE 3.1 mph 4.5 mph 72% 0 in 266.69 W/m2
10:59 77.4 °F 67.6 °F 29.92 in ESE 7.4 mph 9.2 mph 72% 0 in 288.83 W/m2
11:04 77.5 °F 67.8 °F 29.92 in ESE 3.8 mph 5.8 mph 72% 0 in 338.26 W/m2
11:09 77.9 °F 68.2 °F 29.92 in ENE 2.7 mph 3.4 mph 72% 0 in 277.58 W/m2
11:14 77.5 °F 67.8 °F 29.92 in NE 2.5 mph 3.4 mph 72% 0 in 298.01 W/m2
11:19 78.1 °F 68.4 °F 29.91 in SSE 0.9 mph 1.1 mph 72% 0 in 333.49 W/m2
11:24 78.4 °F 67.8 °F 29.91 in ESE 3.8 mph 4.5 mph 70% 0 in 407.74 W/m2
11:29 78.8 °F 67.5 °F 29.91 in East 4 mph 5.8 mph 68% 0 in 426.34 W/m2
11:34 79.2 °F 68.2 °F 29.91 in South 0.7 mph 1.1 mph 69% 0 in 419.86 W/m2
11:39 79 °F 67.6 °F 29.91 in ENE 1.8 mph 2.2 mph 68% 0 in 406.03 W/m2
11:44 79 °F 67.6 °F 29.90 in WSW 0.9 mph 1.1 mph 68% 0 in 429.03 W/m2
11:49 79.7 °F 67.8 °F 29.91 in East 2.9 mph 3.4 mph 67% 0 in 444.57 W/m2
11:54 79.7 °F 67.8 °F 29.90 in ESE 2.9 mph 4.5 mph 67% 0 in 301.93 W/m2
11:59 79.7 °F 67.3 °F 29.91 in ENE 0.9 mph 2.2 mph 66% 0 in 138.36 W/m2
12:04 78.6 °F 67.6 °F 29.91 in NE 0.9 mph 2.2 mph 69% 0 in 232.93 W/m2
12:09 78.4 °F 67.1 °F 29.91 in East 4.7 mph 5.8 mph 68% 0 in 211.15 W/m2
12:14 78.4 °F 67.8 °F 29.91 in ENE 0.9 mph 2.2 mph 70% 0 in 113.16 W/m2
Soleil - Laurel Canyon
Compliments of Weather Underground - 2 mb